Time;durP1;ratioP1;P1;durP2;ratioP2;P2;SDS_P1;SDS_P2;PMS_P1;PMS_P2;Temp;Humidity;BMP_temperature;BMP_pressure;BME280_temperature;BME280_humidity;BME280_pressure;Samples;Min_cycle;Max_cycle;Signal;HPM_P1;HPM_P2
2023/04/19 00:01:43;;;;;;;6.47;4.40;;;15.00;48.70;;;;;;5016049;28;20054;-52
2023/04/19 00:04:11;;;;;;;7.85;4.82;;;15.00;48.70;;;;;;5017862;28;20565;-47
2023/04/19 00:06:39;;;;;;;7.22;4.75;;;15.00;48.80;;;;;;5019901;28;20981;-53
2023/04/19 00:09:07;;;;;;;5.55;4.07;;;15.00;48.70;;;;;;5020016;28;20057;-54
2023/04/19 00:11:34;;;;;;;6.22;4.30;;;15.00;48.80;;;;;;5016385;28;21235;-55
2023/04/19 00:14:01;;;;;;;8.00;4.22;;;15.00;48.80;;;;;;5020478;28;20049;-53
2023/04/19 00:16:28;;;;;;;5.88;4.28;;;15.00;48.80;;;;;;5020312;28;20053;-53
2023/04/19 00:18:55;;;;;;;9.32;4.38;;;15.00;48.80;;;;;;5013397;28;20045;-55
2023/04/19 00:21:23;;;;;;;7.65;4.85;;;15.00;48.80;;;;;;5019216;28;20049;-53
2023/04/19 00:23:52;;;;;;;8.10;4.90;;;15.00;48.70;;;;;;5021001;28;20057;-49
2023/04/19 00:26:20;;;;;;;12.70;5.35;;;15.00;48.70;;;;;;5018933;28;20060;-53
2023/04/19 00:28:47;;;;;;;6.53;4.63;;;15.00;48.80;;;;;;5017730;28;20064;-51
2023/04/19 00:31:14;;;;;;;8.07;4.90;;;15.00;48.90;;;;;;5018924;28;20053;-52
2023/04/19 00:33:41;;;;;;;7.28;4.75;;;14.90;48.90;;;;;;5017594;28;20072;-51
2023/04/19 00:36:09;;;;;;;7.20;5.13;;;14.90;48.90;;;;;;5018877;28;20045;-49
2023/04/19 00:38:38;;;;;;;8.77;5.40;;;14.90;48.90;;;;;;5015044;28;20076;-50
2023/04/19 00:41:05;;;;;;;7.35;4.75;;;14.90;49.00;;;;;;5019630;28;20053;-51
2023/04/19 00:43:32;;;;;;;9.80;5.45;;;14.90;49.00;;;;;;5018889;28;20057;-51
2023/04/19 00:45:59;;;;;;;8.00;4.90;;;14.90;49.10;;;;;;5020517;28;20481;-49
2023/04/19 00:48:26;;;;;;;9.02;5.25;;;14.80;49.10;;;;;;5015059;28;20512;-49
2023/04/19 00:50:54;;;;;;;8.45;5.90;;;14.90;49.10;;;;;;5013108;28;20057;-53
2023/04/19 00:53:21;;;;;;;12.15;6.68;;;14.80;49.10;;;;;;5020030;28;20068;-49
2023/04/19 00:55:50;;;;;;;8.80;5.97;;;14.80;49.20;;;;;;5021188;28;20405;-53
2023/04/19 00:58:17;;;;;;;9.07;6.22;;;14.80;49.20;;;;;;5018899;28;20049;-49
2023/04/19 01:00:45;;;;;;;8.80;5.82;;;14.70;49.20;;;;;;5017366;28;20057;-48
2023/04/19 01:03:13;;;;;;;8.88;6.22;;;14.70;49.30;;;;;;5017236;28;20061;-52
2023/04/19 01:05:40;;;;;;;8.82;5.80;;;14.70;49.30;;;;;;5017644;28;20053;-55
2023/04/19 01:08:08;;;;;;;8.77;6.10;;;14.70;49.30;;;;;;5016643;28;20053;-54
2023/04/19 01:10:35;;;;;;;9.82;6.30;;;14.60;49.40;;;;;;5015855;28;20061;-49
2023/04/19 01:13:03;;;;;;;11.52;5.95;;;14.60;49.50;;;;;;5019769;28;20049;-52
2023/04/19 01:15:31;;;;;;;10.52;5.97;;;14.60;49.50;;;;;;5018786;28;20053;-50
2023/04/19 01:18:00;;;;;;;9.15;5.88;;;14.60;49.60;;;;;;5016303;28;20049;-55
2023/04/19 01:20:28;;;;;;;7.53;5.18;;;14.60;49.60;;;;;;5013109;28;20057;-51
2023/04/19 01:22:56;;;;;;;9.70;6.03;;;14.50;49.60;;;;;;5019078;28;20049;-49
2023/04/19 01:25:23;;;;;;;6.72;4.75;;;14.50;49.70;;;;;;5019353;28;20049;-52
2023/04/19 01:27:50;;;;;;;7.60;5.70;;;14.60;49.70;;;;;;5018144;28;20064;-53
2023/04/19 01:30:18;;;;;;;7.80;5.57;;;14.50;49.60;;;;;;5019225;28;20053;-49
2023/04/19 01:32:45;;;;;;;7.65;5.65;;;14.50;49.70;;;;;;5018128;28;20058;-53
2023/04/19 01:35:12;;;;;;;10.57;6.68;;;14.50;49.80;;;;;;5017263;28;20057;-53
2023/04/19 01:37:39;;;;;;;7.60;5.63;;;14.50;49.90;;;;;;5018356;28;20049;-52
2023/04/19 01:40:08;;;;;;;8.80;6.60;;;14.50;49.90;;;;;;5018833;28;20377;-52
2023/04/19 01:42:36;;;;;;;8.38;5.70;;;14.50;50.10;;;;;;5018728;28;20405;-51
2023/04/19 01:45:03;;;;;;;8.07;5.57;;;14.50;50.10;;;;;;5014017;28;20057;-49
2023/04/19 01:47:30;;;;;;;7.35;5.38;;;14.50;50.10;;;;;;5017103;28;20049;-53
2023/04/19 01:49:57;;;;;;;8.38;5.75;;;14.50;50.10;;;;;;5016068;28;20054;-50
2023/04/19 01:52:25;;;;;;;7.28;5.45;;;14.40;50.10;;;;;;5017703;28;20058;-52
2023/04/19 01:54:52;;;;;;;9.70;6.20;;;14.40;50.10;;;;;;5017717;28;20069;-51
2023/04/19 01:57:20;;;;;;;7.95;5.78;;;14.40;50.20;;;;;;5019743;28;20045;-55
2023/04/19 01:59:47;;;;;;;7.72;5.65;;;14.40;50.20;;;;;;5018507;28;20056;-50
2023/04/19 02:02:15;;;;;;;10.25;5.15;;;14.40;50.30;;;;;;5015507;28;20049;-50
2023/04/19 02:04:42;;;;;;;9.55;6.00;;;14.40;50.20;;;;;;5018748;28;20049;-50
2023/04/19 02:07:10;;;;;;;8.30;5.60;;;14.40;50.30;;;;;;5017368;28;20482;-49
2023/04/19 02:09:38;;;;;;;8.90;5.28;;;14.40;50.40;;;;;;5018922;28;20378;-50
2023/04/19 02:12:06;;;;;;;8.57;6.00;;;14.40;50.40;;;;;;5018801;28;20053;-49
2023/04/19 02:14:35;;;;;;;10.25;6.57;;;14.40;50.40;;;;;;5016038;28;20068;-51
2023/04/19 02:17:02;;;;;;;9.38;6.13;;;14.40;50.50;;;;;;5019275;28;20076;-48
2023/04/19 02:19:29;;;;;;;10.32;6.50;;;14.30;50.40;;;;;;5019450;28;20049;-52
2023/04/19 02:21:56;;;;;;;8.68;6.10;;;14.30;50.50;;;;;;5022414;28;20068;-49
2023/04/19 02:24:24;;;;;;;8.85;6.00;;;14.30;50.50;;;;;;5022865;28;20058;-48
2023/04/19 02:26:51;;;;;;;9.43;6.18;;;14.30;50.50;;;;;;5021809;28;20053;-52
2023/04/19 02:29:19;;;;;;;8.30;6.00;;;14.30;50.60;;;;;;5018058;28;20393;-52
2023/04/19 02:31:47;;;;;;;9.57;5.78;;;14.30;50.60;;;;;;5016140;28;20061;-52
2023/04/19 02:34:14;;;;;;;9.25;6.00;;;14.30;50.70;;;;;;5021029;28;20053;-50
2023/04/19 02:36:42;;;;;;;9.85;6.75;;;14.30;50.70;;;;;;5020976;28;20076;-48
2023/04/19 02:39:09;;;;;;;9.13;6.20;;;14.30;50.70;;;;;;5022563;28;20053;-50
2023/04/19 02:41:36;;;;;;;10.48;6.30;;;14.30;50.70;;;;;;5022994;28;20809;-53
2023/04/19 02:44:04;;;;;;;8.70;6.00;;;14.30;50.70;;;;;;5022019;28;20156;-50
2023/04/19 02:46:31;;;;;;;11.63;7.43;;;14.30;50.70;;;;;;5023803;28;20053;-52
2023/04/19 02:49:02;;;;;;;9.85;6.65;;;14.30;50.70;;;;;;5023440;28;20061;-53
2023/04/19 02:51:29;;;;;;;10.13;6.53;;;14.30;50.80;;;;;;5023403;28;20485;-51
2023/04/19 02:53:56;;;;;;;9.40;6.70;;;14.30;50.70;;;;;;5021886;28;20065;-52
2023/04/19 02:56:23;;;;;;;11.38;6.35;;;14.30;50.80;;;;;;5023167;28;20050;-51
2023/04/19 02:58:53;;;;;;;10.63;6.97;;;14.30;50.80;;;;;;5021582;28;20064;-52
2023/04/19 03:01:20;;;;;;;8.73;6.78;;;14.30;50.90;;;;;;5021830;28;20057;-49
2023/04/19 03:03:47;;;;;;;9.85;6.88;;;14.30;50.90;;;;;;5020337;28;20069;-53
2023/04/19 03:06:16;;;;;;;8.80;6.57;;;14.30;50.90;;;;;;5021060;28;20057;-54
2023/04/19 03:08:43;;;;;;;10.10;7.10;;;14.30;51.00;;;;;;5020900;28;20060;-52
2023/04/19 03:11:11;;;;;;;10.90;7.53;;;14.30;51.00;;;;;;5021059;28;20051;-52
2023/04/19 03:13:39;;;;;;;9.40;6.45;;;14.30;51.00;;;;;;5019359;28;20053;-51
2023/04/19 03:16:07;;;;;;;10.98;7.18;;;14.30;51.00;;;;;;5013813;28;20064;-55
2023/04/19 03:18:35;;;;;;;12.48;7.22;;;14.30;51.00;;;;;;5021688;28;20556;-51
2023/04/19 03:21:02;;;;;;;11.23;7.10;;;14.30;51.00;;;;;;5018624;28;20060;-52
2023/04/19 03:23:31;;;;;;;11.95;7.20;;;14.30;51.10;;;;;;5021829;28;20060;-51
2023/04/19 03:26:00;;;;;;;11.60;6.85;;;14.30;51.10;;;;;;5022409;28;20053;-53
2023/04/19 03:28:27;;;;;;;9.73;7.22;;;14.30;51.10;;;;;;5021522;28;20450;-53
2023/04/19 03:30:54;;;;;;;9.18;6.60;;;14.30;51.20;;;;;;5019285;28;20053;-53
2023/04/19 03:33:22;;;;;;;11.63;6.25;;;14.30;51.20;;;;;;5022203;28;20123;-50
2023/04/19 03:35:49;;;;;;;8.38;6.57;;;14.30;51.20;;;;;;5018395;28;20054;-50
2023/04/19 03:38:16;;;;;;;10.18;7.10;;;14.30;51.20;;;;;;5022007;28;20121;-51
2023/04/19 03:40:45;;;;;;;10.00;7.30;;;14.20;51.30;;;;;;5020370;28;20057;-53
2023/04/19 03:43:13;;;;;;;11.15;7.95;;;14.20;51.40;;;;;;5018973;28;20049;-55
2023/04/19 03:45:40;;;;;;;9.90;7.07;;;14.20;51.50;;;;;;5019113;28;20061;-48
2023/04/19 03:48:07;;;;;;;10.75;7.35;;;14.30;51.60;;;;;;5016069;28;20054;-49
2023/04/19 03:50:34;;;;;;;9.15;6.40;;;14.30;51.60;;;;;;5010914;28;20057;-51
2023/04/19 03:53:03;;;;;;;11.60;7.32;;;14.30;51.70;;;;;;5017008;28;20060;-50
2023/04/19 03:55:31;;;;;;;9.18;6.43;;;14.30;51.90;;;;;;5014643;28;20056;-53
2023/04/19 03:57:59;;;;;;;9.57;6.22;;;14.30;51.90;;;;;;5011585;28;20614;-48
2023/04/19 04:00:27;;;;;;;8.48;6.47;;;14.30;51.90;;;;;;5014240;28;20493;-53
2023/04/19 04:02:54;;;;;;;9.00;6.07;;;14.30;51.90;;;;;;5014903;28;20057;-54
2023/04/19 04:05:21;;;;;;;10.20;5.88;;;14.30;51.90;;;;;;5014480;28;20060;-55
2023/04/19 04:07:48;;;;;;;9.55;5.82;;;14.20;51.80;;;;;;5013196;28;20049;-51
2023/04/19 04:10:16;;;;;;;9.20;5.70;;;14.30;51.90;;;;;;5014586;28;20057;-52
2023/04/19 04:12:43;;;;;;;8.98;5.80;;;14.20;51.90;;;;;;5013064;28;20057;-53
2023/04/19 04:15:12;;;;;;;9.82;7.03;;;14.20;51.90;;;;;;5020230;28;20052;-50
2023/04/19 04:17:39;;;;;;;10.77;7.20;;;14.20;52.10;;;;;;5014411;28;20064;-53
2023/04/19 04:20:07;;;;;;;8.88;6.30;;;14.20;52.10;;;;;;5019615;28;20073;-51
2023/04/19 04:22:35;;;;;;;11.20;6.50;;;14.20;52.10;;;;;;5018091;28;20061;-50
2023/04/19 04:25:02;;;;;;;10.43;6.60;;;14.20;52.10;;;;;;5020471;28;20049;-53
2023/04/19 04:27:29;;;;;;;10.18;6.60;;;14.20;52.60;;;;;;5020456;28;20057;-53
2023/04/19 04:29:56;;;;;;;11.13;6.68;;;14.20;52.20;;;;;;5016604;28;20060;-48
2023/04/19 04:32:25;;;;;;;12.13;7.10;;;14.20;52.20;;;;;;5020979;28;20072;-50
2023/04/19 04:34:52;;;;;;;10.50;6.55;;;14.20;52.20;;;;;;5018831;28;20094;-49
2023/04/19 04:37:19;;;;;;;9.77;6.85;;;14.20;52.20;;;;;;5018206;28;20056;-49
2023/04/19 04:39:46;;;;;;;10.88;6.50;;;14.20;52.30;;;;;;5017570;28;20094;-48
2023/04/19 04:42:14;;;;;;;12.30;7.43;;;14.20;52.30;;;;;;5018477;28;20057;-49
2023/04/19 04:44:41;;;;;;;11.27;7.55;;;14.20;52.50;;;;;;5017861;28;20057;-49
2023/04/19 04:47:08;;;;;;;9.80;7.13;;;14.20;52.50;;;;;;5020068;28;20057;-49
2023/04/19 04:49:36;;;;;;;12.27;7.53;;;14.20;52.40;;;;;;5018652;28;20429;-49
2023/04/19 04:52:05;;;;;;;10.20;7.05;;;14.20;52.50;;;;;;5018614;28;20061;-50
2023/04/19 04:54:32;;;;;;;13.65;7.65;;;14.20;52.40;;;;;;5019882;28;20057;-54
2023/04/19 04:57:00;;;;;;;14.00;7.63;;;14.20;52.40;;;;;;5019272;28;20054;-50
2023/04/19 04:59:27;;;;;;;10.63;7.15;;;14.20;52.40;;;;;;5015708;28;20064;-53
2023/04/19 05:01:54;;;;;;;41.97;18.77;;;14.20;52.40;;;;;;5017104;28;20520;-53
2023/04/19 05:04:21;;;;;;;17.80;10.25;;;14.20;52.40;;;;;;5020555;28;20067;-53
2023/04/19 05:06:50;;;;;;;12.13;8.00;;;14.20;52.40;;;;;;5018438;28;20053;-52
2023/04/19 05:09:17;;;;;;;11.75;7.32;;;14.20;52.50;;;;;;5021255;28;20053;-51
2023/04/19 05:11:45;;;;;;;11.32;7.47;;;14.20;52.40;;;;;;5019917;28;20377;-49
2023/04/19 05:14:12;;;;;;;11.00;7.43;;;14.20;52.60;;;;;;5021364;28;20053;-49
2023/04/19 05:16:40;;;;;;;10.52;7.05;;;14.20;52.50;;;;;;5021642;28;20065;-49
2023/04/19 05:19:07;;;;;;;9.93;6.80;;;14.20;52.50;;;;;;5018724;28;21269;-50
2023/04/19 05:21:34;;;;;;;9.48;6.97;;;14.20;52.50;;;;;;5019900;28;20057;-52
2023/04/19 05:24:03;;;;;;;16.35;7.55;;;14.20;52.50;;;;;;5019382;28;20049;-51
2023/04/19 05:26:31;;;;;;;10.77;7.53;;;14.20;52.50;;;;;;5019959;28;20062;-51
2023/04/19 05:28:58;;;;;;;12.55;7.95;;;14.20;52.50;;;;;;5017818;28;20053;-48
2023/04/19 05:31:25;;;;;;;11.25;7.28;;;14.20;52.50;;;;;;5017761;28;20053;-50
2023/04/19 05:33:52;;;;;;;12.80;7.28;;;14.30;52.50;;;;;;5019737;28;20057;-51
2023/04/19 05:36:20;;;;;;;9.57;6.55;;;14.30;52.60;;;;;;5021203;28;20060;-52
2023/04/19 05:38:47;;;;;;;11.43;7.68;;;14.30;52.50;;;;;;5019396;28;20142;-52
2023/04/19 05:41:15;;;;;;;11.60;7.28;;;14.30;52.70;;;;;;5020032;28;20053;-48
2023/04/19 05:43:42;;;;;;;11.05;6.70;;;14.30;52.60;;;;;;5019430;28;20061;-49
2023/04/19 05:46:10;;;;;;;9.07;6.82;;;14.30;52.60;;;;;;5020901;28;20057;-49
2023/04/19 05:48:37;;;;;;;9.85;6.43;;;14.30;52.60;;;;;;5020694;28;20141;-48
2023/04/19 05:51:04;;;;;;;10.05;6.75;;;14.30;52.60;;;;;;5020892;28;20065;-48
2023/04/19 05:53:31;;;;;;;10.07;6.57;;;14.30;52.60;;;;;;5023620;28;20061;-50
2023/04/19 05:55:59;;;;;;;9.75;7.20;;;14.30;52.50;;;;;;5024628;28;20457;-49
2023/04/19 05:58:27;;;;;;;11.27;7.07;;;14.40;52.60;;;;;;5025512;28;20045;-48
2023/04/19 06:00:54;;;;;;;13.20;7.10;;;14.40;52.60;;;;;;5023071;28;20494;-51
2023/04/19 06:03:21;;;;;;;10.65;7.32;;;14.40;52.60;;;;;;5023953;28;20053;-52
2023/04/19 06:05:49;;;;;;;10.65;6.60;;;14.40;52.50;;;;;;5020648;28;20060;-52
2023/04/19 06:08:16;;;;;;;13.85;7.30;;;14.40;52.60;;;;;;5021658;28;20057;-49
2023/04/19 06:10:46;;;;;;;10.15;6.68;;;14.40;52.70;;;;;;5022309;28;20053;-51
2023/04/19 06:13:13;;;;;;;11.00;6.70;;;14.40;52.70;;;;;;5021743;28;20149;-51
2023/04/19 06:15:41;;;;;;;10.07;6.95;;;14.40;52.80;;;;;;5022106;28;20053;-55
2023/04/19 06:18:09;;;;;;;9.57;6.57;;;14.40;52.80;;;;;;5019513;28;20052;-51
2023/04/19 06:20:37;;;;;;;11.77;7.20;;;14.40;52.80;;;;;;5022783;28;20061;-49
2023/04/19 06:23:04;;;;;;;11.52;6.53;;;14.40;52.90;;;;;;5025033;28;20068;-49
2023/04/19 06:25:34;;;;;;;7.63;5.75;;;14.40;52.80;;;;;;5024228;28;20057;-51
2023/04/19 06:28:02;;;;;;;13.55;7.18;;;14.30;52.80;;;;;;5023925;28;20057;-54
2023/04/19 06:30:29;;;;;;;11.07;7.45;;;14.40;52.90;;;;;;5024253;28;20053;-46
2023/04/19 06:32:57;;;;;;;11.45;7.70;;;14.40;52.90;;;;;;5024792;28;20060;-52
2023/04/19 06:35:25;;;;;;;11.13;7.68;;;14.40;53.00;;;;;;5022403;28;20056;-48
2023/04/19 06:37:52;;;;;;;10.23;7.00;;;14.30;52.80;;;;;;5023757;28;20066;-49
2023/04/19 06:40:19;;;;;;;10.40;7.10;;;14.40;52.90;;;;;;5024336;28;20060;-49
2023/04/19 06:42:46;;;;;;;10.48;6.75;;;14.40;52.90;;;;;;5023863;28;20172;-51
2023/04/19 06:45:15;;;;;;;10.32;7.32;;;14.40;52.90;;;;;;5022533;28;20470;-51
2023/04/19 06:47:42;;;;;;;11.10;7.05;;;14.40;52.80;;;;;;5023254;28;20485;-49
2023/04/19 06:50:13;;;;;;;12.00;7.28;;;14.40;52.80;;;;;;5020950;28;20065;-51
2023/04/19 06:52:40;;;;;;;9.35;6.32;;;14.50;52.80;;;;;;5019816;28;20053;-50
2023/04/19 06:55:08;;;;;;;10.00;7.07;;;14.50;52.60;;;;;;5024054;28;20061;-49
2023/04/19 06:57:35;;;;;;;11.60;7.65;;;14.50;52.50;;;;;;5023623;28;20153;-48
2023/04/19 07:00:05;;;;;;;11.10;7.32;;;14.60;52.30;;;;;;5022163;28;20046;-52
2023/04/19 07:02:32;;;;;;;9.45;6.13;;;14.60;52.30;;;;;;5022591;28;20057;-51
2023/04/19 07:05:06;;;;;;;10.73;6.47;;;14.60;52.20;;;;;;5021323;28;20054;-49
2023/04/19 07:07:36;;;;;;;10.80;6.40;;;14.60;52.10;;;;;;5019372;28;20053;-51
2023/04/19 07:10:04;;;;;;;10.82;6.57;;;14.60;52.10;;;;;;5022653;28;20049;-47
2023/04/19 07:12:31;;;;;;;10.38;6.60;;;14.70;52.10;;;;;;5022928;28;20413;-52
2023/04/19 07:14:58;;;;;;;12.77;6.68;;;14.70;52.00;;;;;;5022616;28;20076;-52
2023/04/19 07:17:26;;;;;;;13.27;7.50;;;14.70;52.00;;;;;;5023560;28;20505;-53
2023/04/19 07:19:53;;;;;;;11.27;6.63;;;14.80;51.40;;;;;;5019090;28;20053;-54
2023/04/19 07:22:21;;;;;;;9.73;7.28;;;14.80;51.50;;;;;;5023841;28;20084;-50
2023/04/19 07:24:51;;;;;;;10.07;6.78;;;14.80;51.40;;;;;;5023644;28;20092;-51
2023/04/19 07:27:18;;;;;;;11.30;6.45;;;14.80;51.50;;;;;;5023473;28;20425;-52
2023/04/19 07:29:46;;;;;;;8.30;6.03;;;14.80;51.50;;;;;;5023244;28;20072;-49
2023/04/19 07:32:14;;;;;;;9.80;6.20;;;14.90;51.50;;;;;;5023280;28;20128;-50
2023/04/19 07:34:42;;;;;;;9.70;6.15;;;14.90;51.40;;;;;;5017633;28;20057;-48
2023/04/19 07:37:12;;;;;;;8.25;5.70;;;14.90;51.30;;;;;;5022737;28;20057;-53
2023/04/19 07:39:39;;;;;;;9.48;6.28;;;15.00;51.30;;;;;;5023297;28;20409;-53
2023/04/19 07:42:08;;;;;;;11.07;6.28;;;15.00;51.20;;;;;;5023570;28;20045;-52
2023/04/19 07:44:35;;;;;;;11.02;6.45;;;15.00;51.00;;;;;;5023483;28;20065;-46
2023/04/19 07:47:04;;;;;;;8.27;5.70;;;15.00;50.80;;;;;;5023101;28;20405;-49
2023/04/19 07:49:33;;;;;;;8.50;6.20;;;15.10;50.90;;;;;;5019859;28;20053;-53
2023/04/19 07:52:00;;;;;;;8.18;5.70;;;15.10;50.90;;;;;;5022513;28;20057;-49
2023/04/19 07:54:29;;;;;;;8.57;5.85;;;15.10;50.80;;;;;;5022685;28;20053;-47
2023/04/19 07:56:56;;;;;;;8.40;5.75;;;15.10;50.50;;;;;;5022977;28;20525;-49
2023/04/19 07:59:25;;;;;;;9.07;6.70;;;15.10;50.50;;;;;;5022534;28;20050;-50
2023/04/19 08:01:52;;;;;;;9.95;6.45;;;15.10;50.30;;;;;;5023282;28;20061;-52
2023/04/19 08:04:21;;;;;;;11.90;6.38;;;15.10;49.80;;;;;;5020125;28;20056;-54
2023/04/19 08:06:48;;;;;;;11.35;7.05;;;15.10;50.40;;;;;;5022584;28;20076;-47
2023/04/19 08:09:18;;;;;;;9.40;5.90;;;15.10;50.20;;;;;;5022082;28;20053;-49
2023/04/19 08:11:45;;;;;;;10.20;6.50;;;15.10;50.40;;;;;;5023286;28;20073;-49
2023/04/19 08:14:12;;;;;;;9.00;6.05;;;15.10;50.50;;;;;;5020559;28;20057;-51
2023/04/19 08:16:41;;;;;;;7.30;5.53;;;15.20;50.50;;;;;;5021489;28;20069;-50
2023/04/19 08:19:08;;;;;;;9.10;6.38;;;15.20;50.40;;;;;;5018425;28;20058;-50
2023/04/19 08:21:37;;;;;;;10.13;6.55;;;15.20;50.10;;;;;;5021858;28;20069;-48
2023/04/19 08:24:05;;;;;;;8.30;5.93;;;15.20;49.60;;;;;;5022298;28;20049;-48
2023/04/19 08:26:32;;;;;;;7.43;5.50;;;15.20;49.60;;;;;;5021937;28;20074;-49
2023/04/19 08:28:59;;;;;;;7.97;6.00;;;15.20;49.80;;;;;;5022287;28;20053;-49
2023/04/19 08:31:26;;;;;;;11.43;6.47;;;15.30;50.00;;;;;;5020757;28;20584;-48
2023/04/19 08:33:55;;;;;;;8.20;5.15;;;15.30;49.60;;;;;;5020419;28;20088;-52
2023/04/19 08:36:23;;;;;;;6.93;5.28;;;15.30;49.90;;;;;;5022281;28;20045;-50
2023/04/19 08:38:50;;;;;;;7.45;4.90;;;15.40;49.40;;;;;;5022336;28;20060;-49
2023/04/19 08:41:19;;;;;;;7.72;5.57;;;15.40;49.20;;;;;;5022301;28;20060;-48
2023/04/19 08:43:48;;;;;;;6.97;5.22;;;15.50;49.10;;;;;;5021501;28;20058;-52
2023/04/19 08:46:16;;;;;;;8.23;5.20;;;15.50;48.60;;;;;;5020128;28;20061;-49
2023/04/19 08:48:45;;;;;;;9.55;6.32;;;15.50;48.70;;;;;;5019409;28;20053;-49
2023/04/19 08:51:16;;;;;;;7.90;5.55;;;15.60;48.40;;;;;;5022027;28;20058;-48
2023/04/19 08:53:44;;;;;;;8.68;6.35;;;15.60;48.80;;;;;;5021651;28;20064;-48
2023/04/19 08:56:12;;;;;;;8.02;5.25;;;15.60;49.00;;;;;;5021385;28;20053;-49
2023/04/19 08:58:39;;;;;;;8.57;6.10;;;15.70;49.20;;;;;;5020952;28;20064;-49
2023/04/19 09:01:10;;;;;;;8.20;5.55;;;15.70;48.60;;;;;;5021403;28;20068;-51
2023/04/19 09:03:43;;;;;;;7.57;5.25;;;15.80;48.80;;;;;;5018538;28;20480;-48
2023/04/19 09:06:14;;;;;;;7.13;5.28;;;15.90;49.00;;;;;;5021949;28;20076;-51
2023/04/19 09:08:41;;;;;;;8.88;4.65;;;15.90;47.70;;;;;;5021341;28;20501;-51
2023/04/19 09:11:09;;;;;;;8.43;5.85;;;16.00;47.70;;;;;;5022132;28;20049;-49
2023/04/19 09:13:37;;;;;;;7.95;4.97;;;15.90;46.40;;;;;;5019575;28;20064;-51
2023/04/19 09:16:06;;;;;;;8.80;5.45;;;15.90;45.70;;;;;;5019863;28;20405;-50
2023/04/19 09:18:34;;;;;;;9.50;5.05;;;15.90;46.00;;;;;;5017239;28;20417;-53
2023/04/19 09:21:01;;;;;;;9.48;4.47;;;15.90;45.60;;;;;;5020661;28;20713;-52
2023/04/19 09:23:32;;;;;;;7.13;4.18;;;15.90;45.50;;;;;;5016029;28;20063;-48
2023/04/19 09:26:03;;;;;;;8.35;4.53;;;15.90;46.30;;;;;;5021763;28;20080;-49
2023/04/19 09:28:31;;;;;;;5.70;4.05;;;15.90;46.00;;;;;;5021292;28;20057;-50
2023/04/19 09:30:58;;;;;;;6.97;4.50;;;15.90;46.30;;;;;;5020336;28;20045;-51
2023/04/19 09:33:32;;;;;;;7.38;4.50;;;16.00;46.60;;;;;;5019670;28;20494;-52
2023/04/19 09:36:02;;;;;;;5.80;4.45;;;16.00;46.50;;;;;;5021855;28;20382;-48
2023/04/19 09:38:46;;;;;;;6.55;4.65;;;16.00;46.60;;;;;;5019838;28;20079;-47
2023/04/19 09:41:13;;;;;;;7.75;4.47;;;16.10;46.10;;;;;;5021251;28;20492;-53
2023/04/19 09:43:40;;;;;;;8.07;4.70;;;16.00;46.00;;;;;;5020228;28;20494;-54
2023/04/19 09:46:08;;;;;;;5.68;4.25;;;16.10;46.10;;;;;;5020194;28;20373;-51
2023/04/19 09:48:36;;;;;;;9.60;4.80;;;16.10;46.50;;;;;;5018450;28;20063;-52
2023/04/19 09:51:03;;;;;;;5.60;3.67;;;16.10;46.20;;;;;;5020374;28;20049;-50
2023/04/19 09:53:33;;;;;;;7.97;4.00;;;16.10;46.90;;;;;;5019967;28;20064;-49
2023/04/19 09:56:01;;;;;;;6.70;3.58;;;16.20;46.70;;;;;;5018461;28;20060;-51
2023/04/19 09:58:28;;;;;;;5.05;3.15;;;16.20;46.60;;;;;;5021673;28;20045;-48
2023/04/19 10:00:58;;;;;;;6.15;3.63;;;16.30;46.40;;;;;;5017875;28;20052;-48
2023/04/19 10:03:28;;;;;;;7.90;3.45;;;16.40;46.50;;;;;;5020553;28;20089;-51
2023/04/19 10:05:56;;;;;;;4.30;3.33;;;16.40;46.40;;;;;;5020268;28;20053;-50
2023/04/19 10:08:26;;;;;;;3.67;3.13;;;16.50;46.40;;;;;;5020746;28;20053;-49
2023/04/19 10:10:55;;;;;;;4.10;3.00;;;16.60;46.30;;;;;;5018270;28;20492;-54
2023/04/19 10:13:24;;;;;;;4.07;2.83;;;16.60;45.30;;;;;;5021176;28;20057;-50
2023/04/19 10:15:51;;;;;;;7.80;2.88;;;16.60;45.50;;;;;;5019917;28;20525;-51
2023/04/19 10:18:19;;;;;;;4.40;2.85;;;16.70;45.30;;;;;;5021020;28;20445;-54
2023/04/19 10:20:51;;;;;;;4.68;2.83;;;16.70;45.10;;;;;;5020570;28;20053;-55
2023/04/19 10:23:20;;;;;;;4.32;3.22;;;16.80;44.80;;;;;;5021064;28;20157;-52
2023/04/19 10:25:48;;;;;;;5.80;2.78;;;16.80;44.30;;;;;;5021011;28;20057;-50
2023/04/19 10:28:17;;;;;;;4.28;2.50;;;16.80;44.80;;;;;;5020746;28;20076;-49
2023/04/19 10:30:55;;;;;;;5.97;2.80;;;16.90;44.20;;;;;;5018438;28;20424;-50
2023/04/19 10:33:27;;;;;;;3.03;2.22;;;16.90;43.40;;;;;;5019299;28;20049;-50
2023/04/19 10:35:57;;;;;;;3.92;2.60;;;16.90;43.70;;;;;;5020273;28;20088;-49
2023/04/19 10:38:38;;;;;;;4.18;2.90;;;16.90;43.50;;;;;;5021036;28;20057;-51
2023/04/19 10:41:13;;;;;;;5.35;2.60;;;16.90;42.80;;;;;;5021752;28;20057;-51
2023/04/19 10:43:44;;;;;;;;;;;16.90;43.00;;;;;;5023520;28;20068;-54
2023/04/19 10:46:16;;;;;;;4.03;2.22;;;17.00;43.30;;;;;;5024184;28;19925;-49
2023/04/19 10:48:55;;;;;;;3.65;2.38;;;17.00;42.60;;;;;;5022438;28;20080;-56
2023/04/19 10:51:23;;;;;;;4.75;2.60;;;17.00;40.30;;;;;;5024342;28;20053;-52
2023/04/19 10:53:56;;;;;;;6.35;2.97;;;16.90;41.40;;;;;;5024228;28;20413;-49
2023/04/19 10:57:00;;;;;;;5.30;2.88;;;17.00;41.80;;;;;;5023929;28;20064;-54
2023/04/19 10:59:31;;;;;;;5.45;3.00;;;17.00;41.90;;;;;;5022060;28;20381;-52
2023/04/19 11:02:00;;;;;;;7.40;3.80;;;17.00;42.50;;;;;;5022102;28;20061;-51
2023/04/19 11:05:00;;;;;;;5.65;3.17;;;17.00;42.40;;;;;;5022814;28;20057;-51
2023/04/19 11:07:28;;;;;;;4.07;2.72;;;17.00;42.40;;;;;;5023167;28;20111;-54
2023/04/19 11:09:55;;;;;;;4.20;2.90;;;17.10;42.60;;;;;;5022964;28;20049;-52
2023/04/19 11:12:22;;;;;;;3.75;2.40;;;17.10;42.40;;;;;;5023686;28;20053;-51
2023/04/19 11:14:53;;;;;;;3.10;2.28;;;17.10;42.30;;;;;;5021591;28;20068;-49
2023/04/19 11:17:24;;;;;;;3.50;1.98;;;17.10;41.70;;;;;;5023848;28;20060;-50
2023/04/19 11:19:56;;;;;;;6.25;2.13;;;17.20;40.90;;;;;;5023033;28;20510;-55
2023/04/19 11:22:32;;;;;;;2.92;1.92;;;17.20;40.20;;;;;;5022579;28;20057;-54
2023/04/19 11:25:07;;;;;;;2.80;1.90;;;17.20;39.50;;;;;;5021896;28;20049;-51
2023/04/19 11:27:35;;;;;;;2.70;1.75;;;17.20;38.70;;;;;;5023617;28;20064;-50
2023/04/19 11:30:07;;;;;;;3.40;2.13;;;17.20;39.70;;;;;;5021342;28;20406;-52
2023/04/19 11:32:35;;;;;;;3.58;1.90;;;17.20;39.70;;;;;;5021238;28;20155;-50
2023/04/19 11:35:07;;;;;;;4.53;2.20;;;17.30;40.00;;;;;;5020290;28;20057;-49
2023/04/19 11:37:35;;;;;;;2.55;1.90;;;17.30;40.10;;;;;;5022593;28;20053;-49
2023/04/19 11:40:03;;;;;;;2.80;2.10;;;17.30;39.80;;;;;;5023111;28;20072;-50
2023/04/19 11:42:31;;;;;;;2.60;2.33;;;17.30;39.90;;;;;;5022751;28;20049;-50
2023/04/19 11:44:58;;;;;;;2.83;1.73;;;17.30;39.80;;;;;;5020500;28;20417;-51
2023/04/19 11:47:29;;;;;;;3.10;1.98;;;17.30;39.90;;;;;;5023162;28;20057;-54
2023/04/19 11:49:57;;;;;;;5.65;2.35;;;17.40;39.70;;;;;;5022263;28;20161;-51
2023/04/19 11:52:26;;;;;;;3.47;2.63;;;17.40;40.20;;;;;;5022548;28;20397;-53
2023/04/19 11:54:53;;;;;;;5.20;2.28;;;17.40;37.90;;;;;;5023034;28;20061;-55
2023/04/19 11:57:28;;;;;;;3.65;2.10;;;17.40;38.00;;;;;;5023410;28;20524;-55
2023/04/19 12:00:10;;;;;;;3.85;2.40;;;17.50;38.90;;;;;;5020854;28;20493;-53
2023/04/19 12:02:40;;;;;;;3.10;2.40;;;17.50;39.20;;;;;;5022146;28;20045;-50
2023/04/19 12:05:09;;;;;;;3.47;2.70;;;17.50;39.80;;;;;;5020899;28;20061;-56
2023/04/19 12:07:37;;;;;;;4.47;2.70;;;17.60;39.10;;;;;;5021926;28;20057;-54
2023/04/19 12:10:11;;;;;;;7.43;2.80;;;17.60;39.20;;;;;;5021983;28;20057;-51
2023/04/19 12:12:39;;;;;;;5.57;3.15;;;17.60;38.70;;;;;;5022726;28;20049;-48
2023/04/19 12:15:10;;;;;;;3.95;2.60;;;17.60;37.10;;;;;;5019385;28;20432;-49
2023/04/19 12:17:57;;;;;;;3.58;2.28;;;17.50;37.70;;;;;;5021332;28;20053;-54
2023/04/19 12:20:32;;;;;;;3.00;2.17;;;17.50;38.60;;;;;;5020685;28;20076;-51
2023/04/19 12:22:59;;;;;;;2.80;2.05;;;17.50;39.00;;;;;;5022427;28;20386;-50
2023/04/19 12:25:30;;;;;;;7.47;2.20;;;17.50;36.90;;;;;;5018978;28;20049;-52
2023/04/19 12:27:58;;;;;;;6.60;2.53;;;17.50;37.70;;;;;;5018362;28;20061;-54
2023/04/19 12:30:25;;;;;;;3.55;2.38;;;17.50;37.30;;;;;;5021552;28;20053;-56
2023/04/19 12:32:54;;;;;;;3.15;2.10;;;17.40;33.90;;;;;;5019775;28;20057;-53
2023/04/19 12:35:24;;;;;;;4.55;2.53;;;17.40;36.00;;;;;;5014536;28;20052;-56
2023/04/19 12:37:53;;;;;;;3.28;2.03;;;17.40;34.20;;;;;;5021215;28;20065;-48
2023/04/19 12:40:20;;;;;;;5.82;1.90;;;17.30;34.60;;;;;;5022513;28;20634;-50
2023/04/19 12:42:48;;;;;;;4.88;2.17;;;17.30;35.00;;;;;;5021586;28;20053;-49
2023/04/19 12:45:16;;;;;;;4.30;1.90;;;17.30;33.80;;;;;;5020836;28;20064;-56
2023/04/19 12:47:44;;;;;;;5.85;1.67;;;17.30;34.60;;;;;;5021992;28;20493;-53
2023/04/19 12:50:12;;;;;;;4.10;1.80;;;17.30;35.10;;;;;;5021548;28;20516;-50